createdAt,value
2023-12-14T00:01:49.953Z,13.13
2023-12-14T00:04:16.725Z,13.15
2023-12-14T00:06:43.376Z,13.60
2023-12-14T00:09:10.000Z,14.05
2023-12-14T00:11:40.382Z,15.88
2023-12-14T00:14:07.868Z,15.30
2023-12-14T00:16:34.675Z,15.82
2023-12-14T00:19:01.443Z,15.30
2023-12-14T00:21:28.219Z,15.88
2023-12-14T00:23:54.918Z,15.88
2023-12-14T00:26:21.568Z,15.50
2023-12-14T00:28:48.251Z,16.08
2023-12-14T00:31:14.871Z,17.02
2023-12-14T00:33:41.800Z,16.52
2023-12-14T00:36:08.813Z,15.43
2023-12-14T00:38:35.409Z,16.48
2023-12-14T00:41:02.067Z,14.90
2023-12-14T00:43:28.723Z,15.80
2023-12-14T00:45:55.446Z,16.23
2023-12-14T00:48:22.320Z,15.30
2023-12-14T00:50:48.938Z,15.13
2023-12-14T00:53:15.614Z,13.55
2023-12-14T00:55:42.383Z,14.98
2023-12-14T00:58:09.053Z,14.68
2023-12-14T01:00:35.715Z,14.68
2023-12-14T01:03:02.388Z,14.68
2023-12-14T01:05:29.069Z,14.88
2023-12-14T01:07:55.845Z,13.63
2023-12-14T01:10:23.323Z,14.30
2023-12-14T01:12:51.249Z,14.30
2023-12-14T01:15:18.129Z,14.90
2023-12-14T01:17:44.819Z,14.43
2023-12-14T01:20:12.133Z,15.07
2023-12-14T01:22:39.340Z,15.43
2023-12-14T01:25:06.388Z,14.63
2023-12-14T01:27:33.003Z,14.57
2023-12-14T01:29:59.603Z,15.13
2023-12-14T01:32:26.232Z,15.57
2023-12-14T01:34:52.912Z,15.90
2023-12-14T01:37:19.638Z,15.63
2023-12-14T01:39:46.322Z,16.85
2023-12-14T01:42:12.984Z,16.42
2023-12-14T01:44:39.611Z,15.85
2023-12-14T01:47:06.249Z,15.95
2023-12-14T01:49:33.030Z,15.98
2023-12-14T01:51:59.636Z,16.83
2023-12-14T01:54:26.268Z,16.20
2023-12-14T01:56:52.927Z,15.32
2023-12-14T01:59:19.511Z,16.67
2023-12-14T02:01:53.294Z,16.63
2023-12-14T02:04:20.086Z,16.17
2023-12-14T02:06:46.690Z,14.88
2023-12-14T02:09:13.345Z,14.68
2023-12-14T02:11:40.159Z,15.25
2023-12-14T02:14:07.711Z,16.75
2023-12-14T02:16:34.544Z,15.45
2023-12-14T02:19:01.310Z,14.57
2023-12-14T02:21:27.940Z,15.30
2023-12-14T02:23:54.620Z,16.17
2023-12-14T02:26:21.304Z,16.20
2023-12-14T02:28:48.127Z,17.05
2023-12-14T02:31:14.892Z,14.85
2023-12-14T02:33:41.647Z,16.50
2023-12-14T02:36:08.497Z,15.75
2023-12-14T02:38:35.270Z,16.45
2023-12-14T02:41:01.979Z,15.70
2023-12-14T02:43:28.619Z,14.52
2023-12-14T02:45:56.444Z,15.73
2023-12-14T02:48:23.138Z,17.65
2023-12-14T02:50:49.894Z,17.05
2023-12-14T02:53:16.642Z,16.27
2023-12-14T02:55:44.370Z,15.80
2023-12-14T02:58:10.963Z,15.52
2023-12-14T03:00:37.590Z,14.27
2023-12-14T03:03:04.318Z,14.50
2023-12-14T03:05:30.996Z,14.38
2023-12-14T03:07:57.778Z,14.85
2023-12-14T03:10:24.463Z,14.40
2023-12-14T03:12:51.094Z,14.23
2023-12-14T03:15:19.842Z,14.18
2023-12-14T03:17:46.646Z,14.35
2023-12-14T03:20:15.505Z,15.23
2023-12-14T03:22:42.404Z,14.75
2023-12-14T03:25:11.031Z,14.15
2023-12-14T03:27:37.719Z,15.38
2023-12-14T03:30:09.031Z,14.13
2023-12-14T03:32:36.357Z,15.25
2023-12-14T03:35:03.413Z,14.95
2023-12-14T03:37:30.221Z,14.70
2023-12-14T03:39:56.848Z,14.70
2023-12-14T03:42:23.554Z,14.38
2023-12-14T03:44:50.137Z,14.48
2023-12-14T03:47:16.835Z,14.38
2023-12-14T03:49:43.468Z,15.65
2023-12-14T03:52:10.790Z,14.10
2023-12-14T03:54:37.403Z,14.60
2023-12-14T03:57:04.161Z,13.98
2023-12-14T03:59:33.277Z,14.80
2023-12-14T04:01:59.953Z,14.25
2023-12-14T04:04:26.679Z,14.85
2023-12-14T04:06:53.456Z,12.60
2023-12-14T04:09:20.076Z,13.82
2023-12-14T04:11:46.761Z,13.27
2023-12-14T04:14:13.814Z,13.55
2023-12-14T04:16:40.765Z,13.05
2023-12-14T04:19:11.312Z,14.00
2023-12-14T04:21:38.261Z,14.20
2023-12-14T04:24:05.466Z,13.82
2023-12-14T04:26:32.229Z,14.30
2023-12-14T04:28:59.111Z,13.07
2023-12-14T04:31:25.817Z,12.82
2023-12-14T04:33:52.496Z,13.57
2023-12-14T04:36:19.127Z,13.23
2023-12-14T04:38:47.506Z,12.38
2023-12-14T04:41:14.940Z,13.15
2023-12-14T04:43:41.758Z,13.00
2023-12-14T04:46:08.552Z,14.00
2023-12-14T04:48:35.453Z,13.50
2023-12-14T04:51:02.126Z,13.27
2023-12-14T04:53:28.795Z,14.05
2023-12-14T04:55:55.641Z,12.02
2023-12-14T04:58:22.659Z,12.55
2023-12-14T05:00:49.686Z,14.25
2023-12-14T05:03:16.553Z,12.38
2023-12-14T05:05:43.248Z,14.13
2023-12-14T05:08:10.035Z,13.25
2023-12-14T05:10:37.422Z,13.68
2023-12-14T05:13:04.427Z,16.35
2023-12-14T05:15:31.789Z,16.02
2023-12-14T05:17:58.622Z,15.02
2023-12-14T05:20:25.542Z,13.93
2023-12-14T05:22:52.345Z,12.98
2023-12-14T05:25:19.452Z,13.40
2023-12-14T05:27:46.213Z,12.10
2023-12-14T05:30:13.232Z,12.85
2023-12-14T05:32:40.167Z,13.13
2023-12-14T05:35:07.605Z,13.10
2023-12-14T05:37:34.506Z,12.77
2023-12-14T05:40:01.140Z,12.88
2023-12-14T05:42:27.786Z,11.93
2023-12-14T05:44:54.603Z,12.35
2023-12-14T05:47:21.621Z,12.35
2023-12-14T05:49:48.347Z,11.70
2023-12-14T05:52:15.058Z,12.40
2023-12-14T05:54:41.974Z,12.65
2023-12-14T05:57:08.658Z,11.85
2023-12-14T05:59:35.559Z,12.32
2023-12-14T06:02:02.786Z,11.73
2023-12-14T06:04:29.577Z,11.73
2023-12-14T06:06:56.243Z,12.45
2023-12-14T06:09:26.937Z,11.90
2023-12-14T06:11:53.593Z,12.45
2023-12-14T06:14:20.398Z,12.27
2023-12-14T06:16:47.311Z,12.35
2023-12-14T06:19:14.097Z,13.10
2023-12-14T06:21:41.938Z,14.00
2023-12-14T06:24:08.702Z,12.65
2023-12-14T06:26:35.450Z,12.45
2023-12-14T06:29:02.326Z,13.25
2023-12-14T06:31:29.225Z,13.88
2023-12-14T06:33:58.306Z,12.75
2023-12-14T06:36:30.764Z,12.55
2023-12-14T06:38:58.639Z,13.55
2023-12-14T06:41:26.329Z,12.70
2023-12-14T06:43:53.330Z,13.70
2023-12-14T06:46:20.450Z,12.38
2023-12-14T06:48:47.480Z,12.40
2023-12-14T06:51:14.635Z,11.85
2023-12-14T06:53:42.939Z,11.93
2023-12-14T06:56:13.216Z,10.93
2023-12-14T06:58:41.585Z,11.90
2023-12-14T07:01:09.444Z,12.25
2023-12-14T07:03:36.361Z,12.23
2023-12-14T07:06:03.298Z,12.52
2023-12-14T07:08:29.886Z,12.07
2023-12-14T07:10:56.698Z,12.85
2023-12-14T07:13:23.324Z,11.40
2023-12-14T07:15:50.000Z,11.48
2023-12-14T07:18:16.746Z,11.20
2023-12-14T07:20:43.692Z,10.13
2023-12-14T07:23:10.431Z,10.75
2023-12-14T07:25:37.162Z,13.75
2023-12-14T07:28:03.982Z,14.27
2023-12-14T07:30:30.669Z,14.85
2023-12-14T07:32:57.555Z,15.23
2023-12-14T07:35:24.606Z,14.60
2023-12-14T07:37:51.467Z,17.15
2023-12-14T07:40:18.391Z,15.88
2023-12-14T07:42:44.981Z,14.68
2023-12-14T07:45:11.832Z,14.30
2023-12-14T07:47:38.646Z,13.20
2023-12-14T07:50:06.168Z,13.98
2023-12-14T07:52:33.073Z,14.23
2023-12-14T07:54:59.762Z,12.73
2023-12-14T07:57:26.429Z,11.75
2023-12-14T07:59:53.122Z,10.57
2023-12-14T08:02:19.794Z,10.32
2023-12-14T08:04:46.581Z,12.52
2023-12-14T08:07:13.313Z,12.48
2023-12-14T08:09:40.026Z,11.32
2023-12-14T08:12:07.177Z,10.07
2023-12-14T08:14:35.261Z,9.40
2023-12-14T08:17:05.859Z,9.75
2023-12-14T08:19:33.218Z,8.73
2023-12-14T08:22:00.041Z,8.73
2023-12-14T08:24:26.625Z,9.25
2023-12-14T08:26:54.214Z,9.07
2023-12-14T08:29:21.766Z,9.13
2023-12-14T08:31:49.085Z,9.00
2023-12-14T08:34:16.536Z,9.27
2023-12-14T08:36:43.938Z,10.18
2023-12-14T08:39:11.043Z,11.63
2023-12-14T08:41:38.295Z,11.70
2023-12-14T08:44:05.614Z,11.35
2023-12-14T08:46:43.191Z,11.57
2023-12-14T08:49:12.519Z,9.35
2023-12-14T08:51:40.361Z,9.55
2023-12-14T08:54:07.969Z,9.15
2023-12-14T08:56:35.433Z,8.70
2023-12-14T08:59:05.266Z,8.65
2023-12-14T09:01:33.924Z,9.23
2023-12-14T09:04:01.771Z,9.15
2023-12-14T09:06:29.346Z,8.20
2023-12-14T09:08:56.551Z,8.40
2023-12-14T09:11:23.819Z,8.27
2023-12-14T09:13:52.150Z,8.25
2023-12-14T09:16:19.699Z,7.60
2023-12-14T09:18:48.242Z,7.90
2023-12-14T09:21:16.391Z,7.97
2023-12-14T09:23:43.849Z,8.07
2023-12-14T09:26:12.031Z,7.53
2023-12-14T09:28:39.455Z,7.63
2023-12-14T09:31:09.250Z,7.63
2023-12-14T09:33:37.555Z,7.80
2023-12-14T09:36:05.905Z,7.70
2023-12-14T09:38:33.654Z,7.55
2023-12-14T09:41:01.666Z,7.90
2023-12-14T09:43:29.752Z,8.32
2023-12-14T09:45:57.530Z,8.23
2023-12-14T09:48:25.798Z,11.80
2023-12-14T09:50:53.269Z,11.50
2023-12-14T09:53:20.641Z,10.70
2023-12-14T09:55:48.626Z,8.88
2023-12-14T09:58:15.991Z,9.43
2023-12-14T10:00:44.458Z,8.90
2023-12-14T10:03:27.288Z,10.73
2023-12-14T10:05:56.787Z,10.15
2023-12-14T10:08:25.136Z,8.55
2023-12-14T10:10:55.874Z,8.10
2023-12-14T10:13:39.998Z,7.20
2023-12-14T10:16:08.072Z,7.50
2023-12-14T10:18:36.256Z,7.13
2023-12-14T10:21:04.924Z,7.30
2023-12-14T10:23:32.638Z,8.45
2023-12-14T10:26:00.128Z,7.15
2023-12-14T10:28:28.332Z,7.20
2023-12-14T10:30:56.452Z,7.55
2023-12-14T10:33:24.493Z,8.02
2023-12-14T10:35:53.015Z,7.47
2023-12-14T10:38:21.861Z,7.25
2023-12-14T10:40:49.465Z,7.13
2023-12-14T10:43:42.353Z,7.47
2023-12-14T10:46:08.811Z,10.60
2023-12-14T10:48:44.122Z,8.63
2023-12-14T10:51:13.135Z,7.07
2023-12-14T10:53:41.120Z,7.70
2023-12-14T10:56:13.614Z,7.93
2023-12-14T10:58:54.296Z,7.18
2023-12-14T11:01:25.536Z,8.98
2023-12-14T11:03:57.062Z,7.90
2023-12-14T11:06:33.586Z,7.95
2023-12-14T11:09:15.649Z,7.57
2023-12-14T11:11:48.524Z,7.28
2023-12-14T11:14:21.651Z,8.82
2023-12-14T11:16:49.721Z,7.80
2023-12-14T11:19:23.755Z,8.20
2023-12-14T11:22:09.421Z,7.88
2023-12-14T11:24:38.082Z,7.75
2023-12-14T11:27:09.195Z,8.20
2023-12-14T11:29:43.280Z,8.75
2023-12-14T11:32:10.962Z,8.85
2023-12-14T11:34:41.509Z,9.88
2023-12-14T11:37:09.781Z,10.02
2023-12-14T11:39:38.350Z,11.05
2023-12-14T11:42:10.241Z,9.30
2023-12-14T11:44:39.565Z,10.00
2023-12-14T11:47:07.425Z,8.23
2023-12-14T11:49:35.079Z,8.27
2023-12-14T11:52:05.786Z,9.50
2023-12-14T11:54:34.092Z,8.45
2023-12-14T11:57:03.120Z,8.63
2023-12-14T11:59:30.163Z,8.77
2023-12-14T12:02:02.551Z,8.10
2023-12-14T12:04:30.197Z,8.00
2023-12-14T12:07:05.771Z,7.38
2023-12-14T12:09:45.383Z,8.05
2023-12-14T12:12:14.430Z,9.27
2023-12-14T12:14:43.179Z,8.63
2023-12-14T12:17:11.265Z,8.07
2023-12-14T12:19:39.197Z,7.90
2023-12-14T12:22:06.949Z,7.85
2023-12-14T12:24:34.885Z,7.80
2023-12-14T12:27:02.658Z,6.95
2023-12-14T12:29:30.010Z,9.02
2023-12-14T12:31:57.386Z,10.60
2023-12-14T12:34:24.664Z,12.57
2023-12-14T12:36:51.830Z,9.93
2023-12-14T12:39:19.221Z,8.20
2023-12-14T12:41:46.368Z,9.57
2023-12-14T12:44:13.647Z,10.18
2023-12-14T12:46:41.448Z,11.25
2023-12-14T12:49:08.602Z,9.65
2023-12-14T12:51:36.739Z,10.77
2023-12-14T12:54:12.462Z,9.48
2023-12-14T12:56:41.462Z,7.97
2023-12-14T12:59:10.328Z,9.63
2023-12-14T13:01:38.690Z,9.20
2023-12-14T13:04:06.340Z,9.23
2023-12-14T13:06:34.086Z,9.35
2023-12-14T13:09:01.352Z,10.35
2023-12-14T13:11:28.589Z,9.32
2023-12-14T13:13:55.954Z,10.20
2023-12-14T13:16:24.271Z,9.52
2023-12-14T13:18:52.080Z,9.65
2023-12-14T13:21:21.261Z,10.05
2023-12-14T13:23:48.685Z,9.70
2023-12-14T13:26:16.195Z,9.93
2023-12-14T13:28:44.211Z,15.40
2023-12-14T13:31:11.872Z,14.93
2023-12-14T13:33:38.998Z,20.30
2023-12-14T13:36:06.950Z,10.43
2023-12-14T13:38:36.038Z,10.90
2023-12-14T13:41:04.486Z,12.00
2023-12-14T13:43:32.139Z,12.88
2023-12-14T13:46:09.729Z,11.45
2023-12-14T13:48:45.283Z,11.25
2023-12-14T13:51:12.818Z,10.68
2023-12-14T13:53:40.852Z,11.35
2023-12-14T13:56:08.550Z,10.02
2023-12-14T13:58:38.419Z,11.25
2023-12-14T14:01:09.410Z,10.85
2023-12-14T14:03:39.548Z,12.02
2023-12-14T14:06:08.312Z,10.05
2023-12-14T14:08:36.940Z,10.60
2023-12-14T14:11:04.616Z,9.43
2023-12-14T14:13:33.570Z,10.88
2023-12-14T14:16:00.776Z,11.43
2023-12-14T14:18:28.236Z,10.80
2023-12-14T14:20:55.669Z,9.57
2023-12-14T14:23:24.339Z,9.73
2023-12-14T14:25:55.630Z,13.38
2023-12-14T14:28:25.880Z,12.27
2023-12-14T14:30:53.950Z,10.07
2023-12-14T14:33:22.980Z,11.45
2023-12-14T14:35:51.407Z,10.70
2023-12-14T14:38:19.395Z,11.27
2023-12-14T14:40:47.027Z,14.32
2023-12-14T14:43:14.173Z,12.63
2023-12-14T14:45:41.527Z,13.23
2023-12-14T14:48:10.334Z,11.07
2023-12-14T14:50:37.567Z,11.77
2023-12-14T14:53:05.223Z,14.63
2023-12-14T14:55:32.929Z,25.58
2023-12-14T14:58:00.607Z,27.85
2023-12-14T15:00:28.021Z,16.58
2023-12-14T15:02:55.234Z,32.28
2023-12-14T15:05:22.981Z,25.42
2023-12-14T15:07:50.420Z,21.88
2023-12-14T15:10:17.961Z,18.98
2023-12-14T15:12:45.386Z,18.02
2023-12-14T15:15:12.742Z,18.80
2023-12-14T15:17:40.207Z,23.40
2023-12-14T15:20:08.254Z,17.50
2023-12-14T15:22:37.088Z,13.80
2023-12-14T15:25:05.526Z,12.68
2023-12-14T15:27:34.139Z,10.50
2023-12-14T15:30:02.105Z,10.75
2023-12-14T15:32:29.466Z,14.55
2023-12-14T15:34:56.983Z,10.40
2023-12-14T15:37:24.586Z,12.85
2023-12-14T15:39:52.092Z,13.48
2023-12-14T15:42:19.298Z,13.15
2023-12-14T15:44:47.479Z,12.07
2023-12-14T15:47:14.650Z,13.25
2023-12-14T15:49:44.815Z,13.18
2023-12-14T15:52:11.648Z,13.35
2023-12-14T15:54:38.379Z,14.20
2023-12-14T15:57:05.249Z,13.00
2023-12-14T15:59:33.686Z,15.35
2023-12-14T16:02:01.072Z,14.52
2023-12-14T16:04:28.041Z,12.02
2023-12-14T16:06:54.697Z,11.98
2023-12-14T16:09:21.336Z,11.90
2023-12-14T16:11:48.050Z,14.27
2023-12-14T16:14:14.999Z,12.73
2023-12-14T16:16:41.967Z,11.70
2023-12-14T16:19:08.695Z,11.27
2023-12-14T16:21:38.128Z,12.70
2023-12-14T16:24:06.111Z,13.98
2023-12-14T16:26:33.318Z,15.23
2023-12-14T16:29:00.180Z,14.02
2023-12-14T16:31:27.005Z,14.48
2023-12-14T16:33:53.755Z,11.60
2023-12-14T16:36:20.504Z,11.98
2023-12-14T16:38:47.788Z,11.27
2023-12-14T16:41:14.971Z,11.10
2023-12-14T16:43:41.725Z,11.68
2023-12-14T16:46:08.708Z,12.80
2023-12-14T16:48:36.387Z,12.20
2023-12-14T16:51:04.944Z,13.32
2023-12-14T16:53:31.722Z,14.20
2023-12-14T16:56:01.990Z,13.05
2023-12-14T16:58:30.339Z,13.07
2023-12-14T17:00:57.385Z,14.10
2023-12-14T17:03:24.280Z,14.05
2023-12-14T17:05:51.168Z,14.80
2023-12-14T17:08:17.946Z,13.75
2023-12-14T17:10:44.745Z,14.52
2023-12-14T17:13:11.427Z,13.93
2023-12-14T17:15:38.068Z,14.60
2023-12-14T17:18:04.772Z,14.60
2023-12-14T17:20:33.709Z,13.65
2023-12-14T17:23:04.159Z,14.68
2023-12-14T17:25:31.657Z,18.40
2023-12-14T17:27:58.474Z,15.90
2023-12-14T17:30:25.371Z,14.95
2023-12-14T17:32:52.126Z,13.73
2023-12-14T17:35:20.288Z,14.98
2023-12-14T17:37:46.953Z,15.68
2023-12-14T17:40:13.824Z,13.98
2023-12-14T17:42:40.679Z,14.82
2023-12-14T17:45:07.987Z,15.68
2023-12-14T17:47:34.925Z,14.20
2023-12-14T17:50:02.113Z,15.07
2023-12-14T17:52:28.783Z,15.77
2023-12-14T17:54:55.652Z,16.15
2023-12-14T17:57:22.386Z,19.85
2023-12-14T17:59:48.983Z,20.23
2023-12-14T18:02:15.774Z,16.30
2023-12-14T18:04:42.541Z,16.10
2023-12-14T18:07:09.260Z,17.13
2023-12-14T18:09:35.949Z,17.27
2023-12-14T18:12:02.699Z,16.65
2023-12-14T18:14:29.400Z,16.85
2023-12-14T18:16:56.090Z,16.00
2023-12-14T18:19:29.486Z,14.68
2023-12-14T18:21:56.692Z,16.33
2023-12-14T18:24:25.490Z,15.05
2023-12-14T18:26:52.212Z,15.05
2023-12-14T18:29:18.915Z,16.20
2023-12-14T18:31:48.481Z,16.35
2023-12-14T18:34:15.177Z,16.15
2023-12-14T18:36:41.900Z,30.15
2023-12-14T18:39:08.649Z,25.77
2023-12-14T18:41:35.305Z,33.50
2023-12-14T18:44:02.058Z,26.80
2023-12-14T18:46:29.030Z,24.80
2023-12-14T18:48:55.883Z,23.38
2023-12-14T18:51:22.696Z,17.48
2023-12-14T18:53:49.574Z,17.40
2023-12-14T18:56:16.381Z,16.67
2023-12-14T18:58:43.194Z,15.98
2023-12-14T19:01:12.804Z,18.70
2023-12-14T19:03:40.328Z,20.02
2023-12-14T19:06:10.499Z,19.45
2023-12-14T19:08:39.700Z,26.17
2023-12-14T19:11:06.675Z,19.70
2023-12-14T19:13:33.652Z,19.17
2023-12-14T19:16:02.692Z,24.45
2023-12-14T19:18:29.428Z,16.95
2023-12-14T19:20:56.066Z,19.05
2023-12-14T19:23:22.800Z,19.10
2023-12-14T19:25:50.065Z,18.02
2023-12-14T19:28:17.500Z,18.75
2023-12-14T19:30:44.229Z,18.52
2023-12-14T19:33:11.193Z,16.50
2023-12-14T19:35:37.967Z,17.58
2023-12-14T19:38:04.598Z,16.70
2023-12-14T19:40:31.226Z,19.13
2023-12-14T19:42:57.932Z,18.65
2023-12-14T19:45:26.333Z,19.20
2023-12-14T19:47:53.143Z,18.13
2023-12-14T19:50:19.797Z,16.42
2023-12-14T19:52:47.598Z,18.25
2023-12-14T19:55:15.409Z,17.40
2023-12-14T19:57:42.578Z,19.40
2023-12-14T20:00:11.853Z,18.23
2023-12-14T20:02:38.611Z,14.77
2023-12-14T20:05:07.281Z,15.93
2023-12-14T20:07:34.867Z,19.80
2023-12-14T20:10:04.077Z,17.58
2023-12-14T20:12:32.187Z,16.70
2023-12-14T20:14:59.216Z,19.88
2023-12-14T20:17:26.110Z,17.38
2023-12-14T20:19:52.901Z,16.17
2023-12-14T20:22:19.538Z,20.10
2023-12-14T20:24:48.994Z,17.80
2023-12-14T20:27:16.096Z,21.30
2023-12-14T20:29:42.790Z,18.90
2023-12-14T20:32:09.401Z,21.15
2023-12-14T20:34:36.125Z,25.45
2023-12-14T20:37:02.768Z,23.02
2023-12-14T20:39:29.424Z,18.55
2023-12-14T20:41:56.139Z,16.67
2023-12-14T20:44:22.910Z,18.48
2023-12-14T20:46:49.753Z,23.63
2023-12-14T20:49:16.553Z,17.23
2023-12-14T20:51:44.165Z,17.00
2023-12-14T20:54:10.917Z,17.95
2023-12-14T20:56:37.641Z,16.20
2023-12-14T20:59:04.384Z,15.98
2023-12-14T21:01:31.895Z,15.07
2023-12-14T21:03:59.091Z,16.42
2023-12-14T21:06:27.984Z,17.77
2023-12-14T21:08:56.012Z,19.27
2023-12-14T21:11:26.234Z,18.73
2023-12-14T21:13:53.782Z,21.92
2023-12-14T21:16:21.006Z,22.25
2023-12-14T21:18:48.089Z,21.08
2023-12-14T21:21:15.307Z,25.35
2023-12-14T21:23:41.990Z,29.20
2023-12-14T21:26:11.477Z,19.67
2023-12-14T21:28:38.423Z,19.63
2023-12-14T21:31:05.621Z,18.30
2023-12-14T21:33:33.226Z,18.55
2023-12-14T21:36:00.643Z,18.77
2023-12-14T21:38:27.484Z,16.80
2023-12-14T21:40:54.191Z,17.92
2023-12-14T21:43:20.964Z,16.02
2023-12-14T21:45:47.752Z,15.07
2023-12-14T21:48:14.713Z,15.75
2023-12-14T21:50:41.533Z,14.57
2023-12-14T21:53:08.291Z,12.40
2023-12-14T21:55:35.336Z,12.95
2023-12-14T21:58:02.557Z,12.07
2023-12-14T22:00:29.299Z,12.93
2023-12-14T22:02:56.007Z,11.55
2023-12-14T22:05:22.958Z,11.25
2023-12-14T22:07:49.988Z,10.63
2023-12-14T22:10:17.281Z,11.57
2023-12-14T22:12:45.878Z,10.88
2023-12-14T22:15:13.776Z,11.30
2023-12-14T22:17:41.372Z,9.60
2023-12-14T22:20:10.882Z,11.35
2023-12-14T22:22:37.894Z,11.25
2023-12-14T22:25:05.725Z,9.75
2023-12-14T22:27:32.448Z,9.90
2023-12-14T22:29:59.079Z,10.43
2023-12-14T22:32:25.923Z,9.10
2023-12-14T22:34:53.658Z,9.80
2023-12-14T22:37:20.313Z,9.38
2023-12-14T22:39:47.033Z,10.55
2023-12-14T22:42:13.738Z,10.95
2023-12-14T22:44:40.421Z,10.02
2023-12-14T22:47:07.243Z,10.10
2023-12-14T22:49:34.008Z,10.85
2023-12-14T22:52:00.692Z,9.63
2023-12-14T22:54:27.265Z,9.93
2023-12-14T22:56:55.724Z,9.82
2023-12-14T22:59:22.517Z,8.95
2023-12-14T23:01:49.284Z,9.52
2023-12-14T23:04:16.010Z,9.43
2023-12-14T23:06:43.647Z,9.90
2023-12-14T23:09:11.236Z,10.20
2023-12-14T23:11:37.911Z,9.88
2023-12-14T23:14:04.635Z,9.23
2023-12-14T23:16:31.555Z,8.65
2023-12-14T23:18:58.375Z,8.98
2023-12-14T23:21:25.176Z,8.65
2023-12-14T23:23:51.868Z,8.55
2023-12-14T23:26:18.489Z,9.55
2023-12-14T23:28:45.250Z,9.02
2023-12-14T23:31:11.873Z,9.07
2023-12-14T23:33:38.729Z,10.15
2023-12-14T23:36:06.026Z,10.07
2023-12-14T23:38:32.798Z,9.80
2023-12-14T23:40:59.523Z,9.32
2023-12-14T23:43:26.238Z,9.38
2023-12-14T23:45:52.963Z,10.30
2023-12-14T23:48:19.849Z,10.32
2023-12-14T23:50:46.522Z,10.40
2023-12-14T23:53:13.182Z,11.07
2023-12-14T23:55:40.407Z,11.48
2023-12-14T23:58:07.223Z,11.40
